createdAt,value
2023-04-24T00:01:40.643Z,1.00
2023-04-24T00:06:03.894Z,0.45
2023-04-24T00:10:26.178Z,0.32
2023-04-24T00:14:48.164Z,0.57
2023-04-24T00:19:10.513Z,0.70
2023-04-24T00:23:32.700Z,0.60
2023-04-24T00:27:55.138Z,0.65
2023-04-24T00:32:19.169Z,1.00
2023-04-24T00:36:41.534Z,0.80
2023-04-24T00:41:03.680Z,0.82
2023-04-24T00:45:25.717Z,0.77
2023-04-24T00:49:47.977Z,1.02
2023-04-24T00:54:10.317Z,0.90
2023-04-24T00:58:33.086Z,1.00
2023-04-24T01:02:55.957Z,0.90
2023-04-24T01:07:22.600Z,0.93
2023-04-24T01:11:46.764Z,1.25
2023-04-24T01:16:08.923Z,0.88
2023-04-24T01:20:31.554Z,1.10
2023-04-24T01:24:54.881Z,0.95
2023-04-24T01:29:17.152Z,1.02
2023-04-24T01:33:39.265Z,0.60
2023-04-24T01:38:01.391Z,0.85
2023-04-24T01:42:23.809Z,1.02
2023-04-24T01:46:46.185Z,0.75
2023-04-24T01:51:08.145Z,0.90
2023-04-24T01:55:30.279Z,0.80
2023-04-24T01:59:53.079Z,1.00
2023-04-24T02:04:16.504Z,1.20
2023-04-24T02:08:38.802Z,1.10
2023-04-24T02:13:02.056Z,1.10
2023-04-24T02:17:24.041Z,0.75
2023-04-24T02:21:46.019Z,1.23
2023-04-24T02:26:08.178Z,0.80
2023-04-24T02:30:30.499Z,1.13
2023-04-24T02:34:52.386Z,0.95
2023-04-24T02:39:15.481Z,1.17
2023-04-24T02:43:37.622Z,0.50
2023-04-24T02:47:59.709Z,1.15
2023-04-24T02:52:21.723Z,1.00
2023-04-24T02:56:43.775Z,1.08
2023-04-24T03:01:06.419Z,1.35
2023-04-24T03:05:28.560Z,0.75
2023-04-24T03:09:51.026Z,1.25
2023-04-24T03:14:13.259Z,1.15
2023-04-24T03:18:35.177Z,1.23
2023-04-24T03:22:58.341Z,1.38
2023-04-24T03:27:21.479Z,1.30
2023-04-24T03:31:52.811Z,1.20
2023-04-24T03:36:15.639Z,1.30
2023-04-24T03:40:37.889Z,0.95
2023-04-24T03:45:10.082Z,1.38
2023-04-24T03:49:35.120Z,1.50
2023-04-24T03:53:58.148Z,1.35
2023-04-24T03:58:24.417Z,1.02
2023-04-24T04:02:48.143Z,1.10
2023-04-24T04:07:10.520Z,1.73
2023-04-24T04:11:33.541Z,0.90
2023-04-24T04:15:55.966Z,1.40
2023-04-24T04:20:17.930Z,1.25
2023-04-24T04:24:41.817Z,0.95
2023-04-24T04:29:05.686Z,1.08
2023-04-24T04:33:29.777Z,1.60
2023-04-24T04:37:52.728Z,1.23
2023-04-24T04:42:41.577Z,1.60
2023-04-24T04:47:07.689Z,1.45
2023-04-24T04:51:32.346Z,1.42
2023-04-24T04:55:54.460Z,1.05
2023-04-24T05:00:21.121Z,1.15
2023-04-24T05:04:47.551Z,0.93
2023-04-24T05:09:12.062Z,1.23
2023-04-24T05:13:41.545Z,1.40
2023-04-24T05:18:21.755Z,1.23
2023-04-24T05:22:44.718Z,1.40
2023-04-24T05:27:07.204Z,1.40
2023-04-24T05:31:36.145Z,1.27
2023-04-24T05:35:58.844Z,1.40
2023-04-24T05:40:21.347Z,1.02
2023-04-24T05:44:44.930Z,1.08
2023-04-24T05:49:07.141Z,0.85
2023-04-24T05:53:30.802Z,1.33
2023-04-24T05:57:53.665Z,1.00
2023-04-24T06:02:17.139Z,1.15
2023-04-24T06:06:40.799Z,1.08
2023-04-24T06:11:04.856Z,1.13
2023-04-24T06:15:32.095Z,0.70
2023-04-24T06:20:08.032Z,0.90
2023-04-24T06:24:30.433Z,0.77
2023-04-24T06:28:57.607Z,0.90
2023-04-24T06:33:22.256Z,1.02
2023-04-24T06:37:45.849Z,1.20
2023-04-24T06:42:09.261Z,0.98
2023-04-24T06:46:31.426Z,1.15
2023-04-24T06:50:53.837Z,1.23
2023-04-24T06:55:17.796Z,1.20
2023-04-24T06:59:40.077Z,1.33
2023-04-24T07:04:02.213Z,1.23
2023-04-24T07:08:24.407Z,0.90
2023-04-24T07:12:46.218Z,1.40
2023-04-24T07:17:08.081Z,0.95
2023-04-24T07:21:29.821Z,1.58
2023-04-24T07:25:51.875Z,1.58
2023-04-24T07:30:14.382Z,1.42
2023-04-24T07:34:37.017Z,1.00
2023-04-24T07:38:58.980Z,1.27
2023-04-24T07:43:22.381Z,1.23
2023-04-24T07:47:46.684Z,1.40
2023-04-24T07:52:09.063Z,0.75
2023-04-24T07:56:32.537Z,0.80
2023-04-24T08:00:54.581Z,1.02
2023-04-24T08:05:16.963Z,1.10
2023-04-24T08:09:39.324Z,0.82
2023-04-24T08:14:01.801Z,1.20
2023-04-24T08:18:24.049Z,0.80
2023-04-24T08:22:48.828Z,1.10
2023-04-24T08:27:11.784Z,1.77
2023-04-24T08:31:34.102Z,0.90
2023-04-24T08:35:56.638Z,1.33
2023-04-24T08:40:18.898Z,1.02
2023-04-24T08:44:41.179Z,1.08
2023-04-24T08:49:04.729Z,0.93
2023-04-24T08:53:28.168Z,0.80
2023-04-24T08:57:54.846Z,1.23
2023-04-24T09:02:18.006Z,0.75
2023-04-24T09:06:40.868Z,0.77
2023-04-24T09:11:04.794Z,1.30
2023-04-24T09:15:27.867Z,1.13
2023-04-24T09:19:50.172Z,1.63
2023-04-24T09:24:19.081Z,0.95
2023-04-24T09:28:42.092Z,1.33
2023-04-24T09:33:16.353Z,1.30
2023-04-24T09:37:44.887Z,1.17
2023-04-24T09:42:07.448Z,1.30
2023-04-24T09:46:33.099Z,0.90
2023-04-24T09:50:54.975Z,0.90
2023-04-24T09:55:21.049Z,1.65
2023-04-24T09:59:47.576Z,0.60
2023-04-24T10:04:25.717Z,0.60
2023-04-24T10:08:49.288Z,0.22
2023-04-24T10:13:12.922Z,0.55
2023-04-24T10:17:36.082Z,0.68
2023-04-24T10:21:59.533Z,0.60
2023-04-24T10:26:22.763Z,0.85
2023-04-24T10:30:45.897Z,1.50
2023-04-24T10:35:10.471Z,0.57
2023-04-24T10:39:34.744Z,0.82
2023-04-24T10:44:15.038Z,0.88
2023-04-24T10:48:42.837Z,0.60
2023-04-24T10:53:16.061Z,0.40
2023-04-24T10:57:38.386Z,0.50
2023-04-24T11:02:00.320Z,0.68
2023-04-24T11:06:34.201Z,0.80
2023-04-24T11:11:12.615Z,1.20
2023-04-24T11:15:34.567Z,1.10
2023-04-24T11:20:22.835Z,0.50
2023-04-24T11:24:47.355Z,0.77
2023-04-24T11:29:16.298Z,0.90
2023-04-24T11:33:40.603Z,0.80
2023-04-24T11:38:22.635Z,0.93
2023-04-24T11:42:48.216Z,0.65
2023-04-24T11:47:10.262Z,0.73
2023-04-24T11:51:43.874Z,1.10
2023-04-24T11:56:13.239Z,1.02
2023-04-24T12:00:35.535Z,1.42
2023-04-24T12:04:57.992Z,0.85
2023-04-24T12:09:20.058Z,0.80
2023-04-24T12:13:42.265Z,1.05
2023-04-24T12:18:05.362Z,0.57
2023-04-24T12:22:28.303Z,1.05
2023-04-24T12:26:50.700Z,1.38
2023-04-24T12:31:12.775Z,1.10
2023-04-24T12:35:38.298Z,0.80
2023-04-24T12:40:14.086Z,0.80
2023-04-24T12:44:38.234Z,1.05
2023-04-24T12:49:00.355Z,1.30
2023-04-24T12:53:22.684Z,1.00
2023-04-24T12:57:44.600Z,1.23
2023-04-24T13:02:07.852Z,1.00
2023-04-24T13:06:30.058Z,1.15
2023-04-24T13:10:53.126Z,0.70
2023-04-24T13:15:15.509Z,0.88
2023-04-24T13:19:43.264Z,1.17
2023-04-24T13:24:06.178Z,0.98
2023-04-24T13:28:28.920Z,1.05
2023-04-24T13:32:50.823Z,1.35
2023-04-24T13:37:12.993Z,1.20
2023-04-24T13:41:37.338Z,1.20
2023-04-24T13:46:00.528Z,1.98
2023-04-24T13:50:22.903Z,1.02
2023-04-24T13:54:44.616Z,1.88
2023-04-24T13:59:06.800Z,1.77
2023-04-24T14:03:29.137Z,1.15
2023-04-24T14:07:52.101Z,1.08
2023-04-24T14:12:15.117Z,1.40
2023-04-24T14:16:37.347Z,1.40
2023-04-24T14:20:59.472Z,1.30
2023-04-24T14:25:21.600Z,1.63
2023-04-24T14:29:43.693Z,1.15
2023-04-24T14:34:05.733Z,1.38
2023-04-24T14:38:27.848Z,1.40
2023-04-24T14:42:49.908Z,1.35
2023-04-24T14:47:12.910Z,1.42
2023-04-24T14:51:34.809Z,1.30
2023-04-24T14:55:57.023Z,1.88
2023-04-24T15:00:21.681Z,1.40
2023-04-24T15:04:44.154Z,1.20
2023-04-24T15:09:06.500Z,1.48
2023-04-24T15:13:28.719Z,1.15
2023-04-24T15:17:53.600Z,1.13
2023-04-24T15:22:18.598Z,1.05
2023-04-24T15:26:40.760Z,0.85
2023-04-24T15:31:02.711Z,0.88
2023-04-24T15:35:25.078Z,0.80
2023-04-24T15:39:47.543Z,0.98
2023-04-24T15:44:09.413Z,0.98
2023-04-24T15:48:31.958Z,1.17
2023-04-24T15:52:53.970Z,1.35
2023-04-24T15:57:17.477Z,0.98
2023-04-24T16:01:40.305Z,0.77
2023-04-24T16:06:02.315Z,1.10
2023-04-24T16:10:24.473Z,0.90
2023-04-24T16:14:47.851Z,1.35
2023-04-24T16:19:09.964Z,0.93
2023-04-24T16:23:31.861Z,1.50
2023-04-24T16:27:54.098Z,1.20
2023-04-24T16:32:16.482Z,1.35
2023-04-24T16:36:38.743Z,1.40
2023-04-24T16:41:00.919Z,1.10
2023-04-24T16:45:22.896Z,1.27
2023-04-24T16:49:45.074Z,1.05
2023-04-24T16:54:07.298Z,1.40
2023-04-24T16:58:29.453Z,1.08
2023-04-24T17:02:51.972Z,1.10
2023-04-24T17:07:14.799Z,1.27
2023-04-24T17:11:36.861Z,1.33
2023-04-24T17:15:59.144Z,2.00
2023-04-24T17:20:23.325Z,1.45
2023-04-24T17:24:46.462Z,1.10
2023-04-24T17:29:13.806Z,1.42
2023-04-24T17:33:37.619Z,1.27
2023-04-24T17:37:59.778Z,1.52
2023-04-24T17:42:21.560Z,1.02
2023-04-24T17:46:43.781Z,1.13
2023-04-24T17:51:06.157Z,2.03
2023-04-24T17:55:28.202Z,1.27
2023-04-24T17:59:50.161Z,1.13
2023-04-24T18:04:12.573Z,1.13
2023-04-24T18:08:35.853Z,1.05
2023-04-24T18:12:59.111Z,1.00
2023-04-24T18:17:25.926Z,1.08
2023-04-24T18:21:48.360Z,1.02
2023-04-24T18:26:10.501Z,1.10
2023-04-24T18:30:32.728Z,1.27
2023-04-24T18:34:55.634Z,1.85
2023-04-24T18:39:17.758Z,1.80
2023-04-24T18:43:40.238Z,1.25
2023-04-24T18:48:02.344Z,1.15
2023-04-24T18:52:25.761Z,1.35
2023-04-24T18:56:47.707Z,1.27
2023-04-24T19:01:09.705Z,1.38
2023-04-24T19:05:31.968Z,1.40
2023-04-24T19:09:53.775Z,1.45
2023-04-24T19:14:16.413Z,1.63
2023-04-24T19:18:38.369Z,1.13
2023-04-24T19:23:00.914Z,1.40
2023-04-24T19:27:23.303Z,1.50
2023-04-24T19:31:45.675Z,1.88
2023-04-24T19:36:09.379Z,1.25
2023-04-24T19:40:31.997Z,1.58
2023-04-24T19:44:54.343Z,1.70
2023-04-24T19:49:17.302Z,1.85
2023-04-24T19:53:39.420Z,2.17
2023-04-24T19:58:01.149Z,1.60
2023-04-24T20:02:23.555Z,1.58
2023-04-24T20:06:46.000Z,1.50
2023-04-24T20:11:07.962Z,1.52
2023-04-24T20:15:29.888Z,1.38
2023-04-24T20:19:52.209Z,1.92
2023-04-24T20:24:16.415Z,1.48
2023-04-24T20:28:38.568Z,1.50
2023-04-24T20:33:00.821Z,1.77
2023-04-24T20:37:24.904Z,1.73
2023-04-24T20:41:47.739Z,1.67
2023-04-24T20:46:09.781Z,1.98
2023-04-24T20:50:33.359Z,2.63
2023-04-24T20:54:55.538Z,1.83
2023-04-24T20:59:17.599Z,1.88
2023-04-24T21:03:39.401Z,1.42
2023-04-24T21:08:01.662Z,1.92
2023-04-24T21:12:23.481Z,1.83
2023-04-24T21:16:45.824Z,1.88
2023-04-24T21:21:11.260Z,2.15
2023-04-24T21:25:34.682Z,2.47
2023-04-24T21:29:56.749Z,2.33
2023-04-24T21:34:18.778Z,2.30
2023-04-24T21:38:40.938Z,2.75
2023-04-24T21:43:03.203Z,3.03
2023-04-24T21:47:25.651Z,2.50
2023-04-24T21:51:48.026Z,2.28
2023-04-24T21:56:10.337Z,2.35
2023-04-24T22:00:33.442Z,2.97
2023-04-24T22:04:56.672Z,2.70
2023-04-24T22:09:18.816Z,2.90
2023-04-24T22:13:40.932Z,3.00
2023-04-24T22:18:05.380Z,3.10
2023-04-24T22:22:28.721Z,3.55
2023-04-24T22:26:50.659Z,3.17
2023-04-24T22:31:12.593Z,3.65
2023-04-24T22:35:36.626Z,3.00
2023-04-24T22:40:01.368Z,3.53
2023-04-24T22:44:23.702Z,3.30
2023-04-24T22:48:47.481Z,3.92
2023-04-24T22:53:09.543Z,3.72
2023-04-24T22:57:31.428Z,3.67
2023-04-24T23:01:53.329Z,3.40
2023-04-24T23:06:15.315Z,3.63
2023-04-24T23:10:38.349Z,3.92
2023-04-24T23:15:01.095Z,3.92
2023-04-24T23:19:23.358Z,4.18
2023-04-24T23:23:45.241Z,3.78
2023-04-24T23:28:07.395Z,4.13
2023-04-24T23:32:29.577Z,4.20
2023-04-24T23:36:54.965Z,4.13
2023-04-24T23:41:17.099Z,4.55
2023-04-24T23:45:39.043Z,4.85
2023-04-24T23:50:01.383Z,4.85
2023-04-24T23:54:23.657Z,4.72
2023-04-24T23:58:49.306Z,4.72
